Terminal Aerodrome Forecast
Issued by NWS Twin Cities, MN

Home | Current Version | Previous Version | Graphics & Text | Print | Product List | Glossary On
Versions: 1 2 3 4 5 6 7 8 9 10 11 12 13 14 15
000
FTUS43 KMPX 130500 RRA
TAFEAU
TAF
KEAU 130541Z 1306/1406 06007KT 6SM BR OVC007
     FM131500 01012G20KT P6SM BKN012
     FM132200 35016G23KT P6SM BKN025
     FM140300 35015G20KT P6SM BKN025=

USA.gov is the U.S. government's official web portal to all federal, state and local government web resources and services.